DTTA/TUN METAR and TAF weather

Enter ICAO airport designator
Station Type Date Time Source
DTTA METAR 2019/05/26 02:00 UTC NOAA

DTTA 260200Z 28006KT 260V320 4000 RA SCT023 BKN040 17/17 Q1006


Station Type Date Time Source
DTTA Decoded METAR 2019/05/26 02:00 UTC NOAA

Tunis-Carthage, Tunisia (DTTA) 36-50N 010-14E 4M
May 25, 2019 - 10:00 PM EDT / 2019.05.26 0200 UTC
Wind: from the W (280 degrees) at 7 MPH (6 KT) (direction variable):0
Visibility: 2 mile(s):0
Sky conditions: mostly cloudy
Weather: rain
Temperature: 62 F (17 C)
Dew Point: 62 F (17 C)
Relative Humidity: 100%
Pressure (altimeter): 29.71 in. Hg (1006 hPa)
ob: DTTA 260200Z 28006KT 260V320 4000 RA SCT023 BKN040 17/17 Q1006
cycle: 2

Station Type Date Time Source
DTTA TAF 2019/05/25 18:21 UTC NOAA

TAF DTTA 251700Z 2518/2618 12010KT 9999 SCT023
BECMG 2519/2521 36005KT PROB40
TEMPO 2519/2606 4000 TS RA FEW026CB
BECMG 2606/0608 30010KT PROB40
TEMPO 2606/2610 31020G30KT 4000 TSRA FEW026CB

Example: see airport list